»·PEaware :: WAT169 KSAN-KLAS

WAT169 :: KSAN-KLAS

FLIGHT INFORMATION

Flight Status: Arrived
Operator:
Walker Air Transport
More flights by this operator :: More flights under this callsign
Pilot: Marty P. (27464)
Aircraft: BOEING 737-800
(B738)
More flights by this aircraft type
Origin: KSAN San Diego Intl-Lindbergh
United States
Destination: KLAS McCarran Intl
United States
More flights between these airports :: More routes between these airports
Route: +PADRZ2 CHKNN SEBBY YELAH MISEN KEPEC6
File this flight plan on PilotEdge
Remarks:
Altitude:
(Current/Filed)
27,000ft
Speed:
(Current/Filed)
480kts
Departed: 19-Jul-20 07:44 PM
Arrived: 19-Jul-20 08:30 PM
Distance/Time
Traveled:
225nm/0:46
Distance/Time
To Go:
Arrived

Flight Plot

Page will automatically refresh every two minutes.

Flight plan parsing failed; only flown route is shown


Map Options




Map Legend


Flown Route
Filed Route
Departure Airport
Arrival Airport
Navaid (VOR, NDB)
Fix

Horizontal Profiles

Position Reports

Time Latitude Longitude Heading Altitude Ground
Speed
19-Jul-20 19:21 32.732372 -117.202816 203 27ft 0kts
19-Jul-20 19:22 32.732372 -117.202816 203 27ft 0kts
19-Jul-20 19:23 32.732372 -117.202816 203 27ft 0kts
19-Jul-20 19:24 32.732372 -117.202816 203 27ft 0kts
19-Jul-20 19:25 32.732372 -117.202816 203 27ft 0kts
19-Jul-20 19:26 32.732372 -117.202816 203 27ft 0kts
19-Jul-20 19:27 32.732372 -117.202816 203 27ft 0kts
19-Jul-20 19:28 32.732372 -117.202816 203 27ft 0kts
19-Jul-20 19:29 32.732372 -117.202816 203 27ft 0kts
19-Jul-20 19:30 32.732372 -117.202816 203 27ft 0kts
19-Jul-20 19:31 32.732710 -117.202774 186 27ft 2kts
19-Jul-20 19:32 32.732956 -117.202539 330 27ft 1kts
19-Jul-20 19:33 32.733637 -117.202736 346 27ft 0kts
19-Jul-20 19:34 32.733637 -117.202736 346 27ft 0kts
19-Jul-20 19:35 32.733796 -117.202768 353 27ft 3kts
19-Jul-20 19:36 32.735020 -117.202382 18 27ft 0kts
19-Jul-20 19:37 32.735020 -117.202382 18 27ft 0kts
19-Jul-20 19:38 32.734835 -117.199199 105 27ft 24kts
19-Jul-20 19:39 32.733080 -117.191981 105 27ft 22kts
19-Jul-20 19:40 32.731480 -117.185380 106 27ft 20kts
19-Jul-20 19:41 32.729859 -117.178643 105 27ft 20kts
19-Jul-20 19:42 32.730043 -117.175778 337 27ft 8kts
19-Jul-20 19:43 32.738629 -117.211145 288 721ft 192kts
19-Jul-20 19:44 32.772544 -117.270194 301 3680ft 240kts
19-Jul-20 19:45 32.810543 -117.336047 307 7251ft 251kts
19-Jul-20 19:46 32.854645 -117.403677 306 10768ft 272kts
19-Jul-20 19:47 32.909178 -117.488341 307 12379ft 366kts
19-Jul-20 19:48 32.972443 -117.586880 306 15596ft 388kts
19-Jul-20 19:49 33.039796 -117.692046 305 18417ft 408kts
19-Jul-20 19:50 33.121574 -117.787909 317 20937ft 425kts
19-Jul-20 19:51 33.213405 -117.881222 319 22924ft 440kts
19-Jul-20 19:52 33.308647 -117.973952 319 23015ft 438kts
19-Jul-20 19:53 33.403779 -118.066810 319 25811ft 426kts
19-Jul-20 19:54 33.496434 -118.157641 319 27005ft 456kts
19-Jul-20 19:55 33.607217 -118.245686 330 26998ft 492kts
19-Jul-20 19:56 33.734085 -118.306791 354 26999ft 497kts
19-Jul-20 19:57 33.860834 -118.254610 47 26998ft 499kts
19-Jul-20 19:58 33.906551 -118.099566 71 26986ft 497kts
19-Jul-20 19:59 33.981409 -117.959473 54 26987ft 500kts
19-Jul-20 20:00 34.062935 -117.822946 55 27009ft 501kts
19-Jul-20 20:01 34.148686 -117.691433 51 27007ft 501kts
19-Jul-20 20:02 34.237479 -117.561258 51 27013ft 501kts
19-Jul-20 20:03 34.326071 -117.431269 51 27008ft 500kts
19-Jul-20 20:04 34.412824 -117.303614 51 27013ft 497kts
19-Jul-20 20:05 34.500274 -117.174503 51 27009ft 499kts
19-Jul-20 20:06 34.588359 -117.043965 51 26993ft 498kts
19-Jul-20 20:07 34.676452 -116.912920 51 26933ft 505kts
19-Jul-20 20:08 34.765259 -116.780323 51 26908ft 507kts
19-Jul-20 20:09 34.853843 -116.654193 45 26907ft 473kts
19-Jul-20 20:10 34.954705 -116.548377 39 26909ft 482kts
19-Jul-20 20:11 35.057554 -116.448684 38 25120ft 462kts
19-Jul-20 20:12 35.151162 -116.347300 45 23920ft 456kts
19-Jul-20 20:13 35.239496 -116.240983 46 23102ft 447kts
19-Jul-20 20:14 35.323856 -116.132772 47 20350ft 427kts
19-Jul-20 20:15 35.401589 -116.030534 47 18742ft 391kts
19-Jul-20 20:16 35.477769 -115.932146 46 17504ft 386kts
19-Jul-20 20:17 35.553886 -115.835492 46 14924ft 388kts
19-Jul-20 20:18 35.624123 -115.746120 46 13709ft 324kts
19-Jul-20 20:19 35.682673 -115.671242 46 13043ft 312kts
19-Jul-20 20:20 35.744922 -115.595954 49 13034ft 311kts
19-Jul-20 20:21 35.786008 -115.510087 61 12083ft 283kts
19-Jul-20 20:23 35.822675 -115.425314 60 10076ft 279kts
19-Jul-20 20:24 35.859567 -115.338921 42 7470ft 301kts
19-Jul-20 20:25 35.930163 -115.327140 353 7007ft 238kts
19-Jul-20 20:26 35.999651 -115.325538 1 5488ft 260kts
19-Jul-20 20:27 36.063020 -115.301273 48 5032ft 213kts
19-Jul-20 20:28 36.073067 -115.234299 91 3558ft 181kts
19-Jul-20 20:29 36.073633 -115.177362 91 2403ft 163kts
19-Jul-20 20:30 36.073783 -115.141108 72 2191ft 23kts
19-Jul-20 20:31 36.074957 -115.138154 44 2191ft 8kts
19-Jul-20 20:32 36.077410 -115.137918 0 2191ft 0kts
19-Jul-20 20:33 36.078265 -115.140320 270 2191ft 19kts

Navigation Log

Ident Type
Flight plan parsing failed, navigation log unavailable